createdAt,value
2019-02-21T00:00:45.496Z,71.68
2019-02-21T00:03:16.824Z,71.35
2019-02-21T00:05:47.844Z,71.40
2019-02-21T00:08:18.998Z,71.64
2019-02-21T00:10:50.078Z,71.23
2019-02-21T00:13:21.227Z,70.72
2019-02-21T00:15:52.315Z,70.84
2019-02-21T00:18:23.410Z,71.52
2019-02-21T00:20:54.494Z,71.59
2019-02-21T00:23:25.788Z,71.72
2019-02-21T00:25:56.953Z,71.30
2019-02-21T00:28:28.231Z,71.42
2019-02-21T00:31:00.262Z,71.56
2019-02-21T00:33:31.262Z,71.53
2019-02-21T00:36:02.365Z,71.47
2019-02-21T00:38:33.528Z,71.33
2019-02-21T00:41:05.027Z,70.93
2019-02-21T00:43:38.131Z,70.87
2019-02-21T00:46:09.226Z,70.82
2019-02-21T00:48:40.390Z,71.07
2019-02-21T00:51:11.522Z,70.98
2019-02-21T00:53:43.013Z,70.26
2019-02-21T00:56:14.026Z,70.10
2019-02-21T00:58:45.229Z,70.51
2019-02-21T01:01:16.283Z,69.86
2019-02-21T01:03:47.372Z,70.00
2019-02-21T01:06:18.424Z,69.99
2019-02-21T01:08:49.508Z,69.59
2019-02-21T01:11:20.521Z,69.65
2019-02-21T01:13:51.594Z,69.72
2019-02-21T01:16:22.792Z,69.64
2019-02-21T01:18:53.933Z,69.50
2019-02-21T01:21:25.106Z,69.36
2019-02-21T01:23:56.287Z,69.49
2019-02-21T01:26:27.419Z,69.32
2019-02-21T01:29:00.074Z,69.38
2019-02-21T01:31:31.166Z,69.43
2019-02-21T01:34:02.406Z,69.35
2019-02-21T01:36:33.571Z,69.26
2019-02-21T01:39:06.461Z,69.34
2019-02-21T01:41:38.596Z,69.40
2019-02-21T01:44:09.717Z,69.44
2019-02-21T01:46:40.886Z,69.59
2019-02-21T01:49:12.014Z,69.73
2019-02-21T01:51:43.197Z,69.83
2019-02-21T01:54:14.273Z,69.92
2019-02-21T01:56:45.281Z,69.98
2019-02-21T01:59:16.305Z,70.06
2019-02-21T02:01:47.306Z,70.20
2019-02-21T02:04:18.306Z,70.48
2019-02-21T02:06:49.466Z,70.49
2019-02-21T02:09:20.734Z,70.65
2019-02-21T02:11:51.911Z,70.04
2019-02-21T02:14:23.045Z,70.35
2019-02-21T02:16:54.095Z,70.79
2019-02-21T02:19:25.140Z,70.69
2019-02-21T02:21:56.141Z,70.92
2019-02-21T02:24:27.307Z,70.75
2019-02-21T02:27:00.267Z,71.39
2019-02-21T02:29:31.462Z,71.23
2019-02-21T02:32:02.473Z,70.98
2019-02-21T02:34:33.545Z,71.13
2019-02-21T02:37:04.805Z,70.94
2019-02-21T02:39:35.981Z,71.12
2019-02-21T02:42:08.719Z,71.14
2019-02-21T02:44:40.292Z,70.92
2019-02-21T02:47:11.411Z,71.12
2019-02-21T02:49:42.485Z,71.42
2019-02-21T02:52:13.586Z,71.81
2019-02-21T02:54:44.716Z,71.93
2019-02-21T02:57:15.702Z,72.49
2019-02-21T02:59:46.730Z,72.19
2019-02-21T03:02:17.723Z,71.62
2019-02-21T03:04:48.888Z,71.47
2019-02-21T03:07:21.072Z,71.32
2019-02-21T03:09:52.110Z,71.11
2019-02-21T03:12:23.310Z,70.91
2019-02-21T03:14:54.432Z,71.41
2019-02-21T03:17:25.524Z,71.62
2019-02-21T03:19:56.634Z,71.15
2019-02-21T03:22:27.717Z,71.04
2019-02-21T03:24:58.914Z,71.09
2019-02-21T03:27:30.037Z,70.90
2019-02-21T03:30:01.062Z,71.19
2019-02-21T03:32:32.198Z,70.98
2019-02-21T03:35:03.345Z,71.11
2019-02-21T03:37:34.480Z,71.17
2019-02-21T03:40:06.585Z,71.39
2019-02-21T03:42:38.097Z,71.63
2019-02-21T03:45:10.435Z,71.83
2019-02-21T03:47:41.590Z,71.84
2019-02-21T03:50:12.932Z,71.67
2019-02-21T03:52:44.077Z,71.55
2019-02-21T03:55:15.223Z,71.54
2019-02-21T03:57:46.315Z,71.18
2019-02-21T04:00:17.453Z,71.18
2019-02-21T04:02:48.793Z,71.16
2019-02-21T04:05:20.227Z,71.30
2019-02-21T04:07:51.289Z,71.40
2019-02-21T04:10:23.440Z,71.65
2019-02-21T04:12:54.568Z,71.51
2019-02-21T04:15:25.685Z,71.50
2019-02-21T04:17:56.817Z,71.47
2019-02-21T04:20:27.835Z,71.52
2019-02-21T04:22:58.910Z,71.81
2019-02-21T04:25:30.017Z,71.74
2019-02-21T04:28:01.015Z,72.28
2019-02-21T04:30:32.170Z,72.42
2019-02-21T04:33:03.375Z,71.96
2019-02-21T04:35:34.525Z,72.00
2019-02-21T04:38:05.728Z,72.09
2019-02-21T04:40:36.970Z,72.17
2019-02-21T04:43:08.178Z,71.84
2019-02-21T04:45:39.294Z,71.83
2019-02-21T04:48:10.325Z,72.00
2019-02-21T04:50:42.923Z,72.23
2019-02-21T04:53:14.089Z,72.54
2019-02-21T04:55:45.220Z,72.50
2019-02-21T04:58:16.402Z,72.20
2019-02-21T05:00:47.410Z,72.32
2019-02-21T05:03:18.507Z,72.41
2019-02-21T05:05:49.606Z,72.64
2019-02-21T05:08:20.667Z,72.71
2019-02-21T05:10:51.719Z,72.99
2019-02-21T05:13:22.700Z,72.60
2019-02-21T05:15:53.787Z,72.84
2019-02-21T05:18:24.854Z,73.32
2019-02-21T05:20:57.376Z,73.34
2019-02-21T05:23:28.362Z,73.51
2019-02-21T05:25:59.518Z,73.22
2019-02-21T05:28:32.147Z,73.17
2019-02-21T05:31:07.456Z,73.23
2019-02-21T05:34:06.722Z,72.98
2019-02-21T05:37:02.682Z,72.82
2019-02-21T05:39:42.556Z,73.04
2019-02-21T05:42:45.080Z,73.42
2019-02-21T05:45:38.239Z,73.74
2019-02-21T05:48:25.623Z,73.83
2019-02-21T05:51:05.471Z,74.28
2019-02-21T05:53:41.954Z,75.01
2019-02-21T05:56:29.661Z,75.18
2019-02-21T05:59:18.613Z,74.84
2019-02-21T06:02:10.134Z,74.61
2019-02-21T06:04:58.911Z,74.98
2019-02-21T06:07:43.894Z,75.70
2019-02-21T06:10:46.100Z,75.64
2019-02-21T06:13:33.458Z,76.09
2019-02-21T06:16:23.554Z,76.34
2019-02-21T06:19:12.642Z,76.38
2019-02-21T06:21:55.750Z,76.20
2019-02-21T06:24:51.553Z,75.57
2019-02-21T06:27:27.108Z,75.25
2019-02-21T06:30:01.849Z,75.09
2019-02-21T06:32:33.220Z,75.58
2019-02-21T06:35:04.414Z,75.61
2019-02-21T06:37:37.742Z,75.36
2019-02-21T06:40:08.382Z,74.88
2019-02-21T06:42:39.452Z,74.17
2019-02-21T06:45:10.603Z,72.94
2019-02-21T06:47:41.634Z,72.73
2019-02-21T06:50:14.480Z,72.55
2019-02-21T06:52:45.729Z,72.05
2019-02-21T06:55:16.948Z,71.81
2019-02-21T06:57:48.057Z,71.62
2019-02-21T07:00:19.175Z,71.57
2019-02-21T07:02:50.266Z,70.97
2019-02-21T07:05:21.607Z,70.67
2019-02-21T07:07:52.647Z,70.57
2019-02-21T07:10:23.808Z,70.46
2019-02-21T07:12:54.802Z,69.95
2019-02-21T07:15:25.881Z,69.54
2019-02-21T07:17:56.975Z,69.37
2019-02-21T07:20:28.103Z,68.78
2019-02-21T07:22:59.163Z,68.69
2019-02-21T07:25:47.064Z,68.34
2019-02-21T07:28:18.449Z,68.27
2019-02-21T07:30:50.449Z,68.56
2019-02-21T07:33:28.545Z,68.04
2019-02-21T07:35:54.757Z,67.75
2019-02-21T07:38:25.859Z,67.79
2019-02-21T07:40:56.959Z,67.51
2019-02-21T07:43:28.022Z,67.17
2019-02-21T07:45:59.073Z,66.58
2019-02-21T07:48:30.167Z,66.45
2019-02-21T07:51:01.397Z,66.35
2019-02-21T07:53:32.529Z,65.72
2019-02-21T07:56:03.682Z,65.83
2019-02-21T07:58:34.785Z,64.93
2019-02-21T08:01:05.874Z,65.17
2019-02-21T08:03:44.339Z,64.66
2019-02-21T08:06:10.104Z,64.64
2019-02-21T08:08:41.306Z,64.25
2019-02-21T08:11:12.481Z,63.94
2019-02-21T08:13:43.657Z,63.44
2019-02-21T08:16:14.864Z,63.16
2019-02-21T08:18:45.966Z,63.07
2019-02-21T08:21:16.983Z,62.60
2019-02-21T08:23:50.844Z,62.75
2019-02-21T08:26:20.871Z,62.57
2019-02-21T08:28:51.885Z,62.42
2019-02-21T08:31:23.074Z,62.16
2019-02-21T08:34:00.822Z,62.02
2019-02-21T08:36:31.959Z,61.85
2019-02-21T08:39:04.890Z,61.54
2019-02-21T08:41:36.749Z,61.56
2019-02-21T08:44:09.492Z,61.63
2019-02-21T08:46:40.808Z,61.41
2019-02-21T08:49:11.818Z,61.34
2019-02-21T08:51:42.847Z,61.43
2019-02-21T08:54:14.011Z,61.39
2019-02-21T08:56:45.110Z,61.31
2019-02-21T08:59:16.115Z,61.05
2019-02-21T09:01:47.323Z,61.26
2019-02-21T09:04:27.314Z,60.83
2019-02-21T09:06:51.346Z,60.96
2019-02-21T09:09:22.438Z,61.01
2019-02-21T09:11:53.919Z,60.84
2019-02-21T09:14:25.088Z,60.42
2019-02-21T09:16:56.112Z,60.69
2019-02-21T09:19:27.275Z,60.72
2019-02-21T09:21:58.379Z,60.27
2019-02-21T09:24:38.457Z,60.21
2019-02-21T09:27:02.272Z,60.46
2019-02-21T09:29:33.471Z,60.21
2019-02-21T09:32:06.841Z,60.31
2019-02-21T09:34:37.387Z,60.26
2019-02-21T09:37:08.569Z,60.17
2019-02-21T09:39:39.780Z,60.02
2019-02-21T09:42:11.026Z,59.89
2019-02-21T09:44:42.231Z,59.52
2019-02-21T09:47:13.324Z,59.12
2019-02-21T09:49:44.605Z,59.41
2019-02-21T09:52:15.888Z,59.34
2019-02-21T09:54:47.628Z,59.62
2019-02-21T09:57:19.053Z,59.47
2019-02-21T09:59:50.327Z,59.30
2019-02-21T10:02:23.176Z,59.63
2019-02-21T10:05:04.426Z,59.25
2019-02-21T10:07:27.298Z,58.56
2019-02-21T10:10:00.793Z,57.82
2019-02-21T10:12:31.228Z,57.40
2019-02-21T10:15:02.393Z,57.41
2019-02-21T10:17:33.770Z,56.89
2019-02-21T10:20:06.744Z,56.02
2019-02-21T10:22:38.440Z,55.72
2019-02-21T10:25:23.472Z,54.29
2019-02-21T10:27:54.777Z,55.82
2019-02-21T10:30:25.904Z,54.87
2019-02-21T10:32:56.990Z,55.96
2019-02-21T10:35:28.314Z,56.01
2019-02-21T10:37:59.532Z,55.38
2019-02-21T10:40:33.401Z,55.19
2019-02-21T10:43:04.754Z,55.50
2019-02-21T10:45:47.146Z,55.62
2019-02-21T10:48:08.868Z,55.38
2019-02-21T10:50:40.076Z,55.66
2019-02-21T10:53:11.239Z,55.78
2019-02-21T10:55:42.476Z,55.76
2019-02-21T10:58:14.381Z,55.77
2019-02-21T11:00:45.647Z,55.91
2019-02-21T11:03:16.817Z,55.58
2019-02-21T11:05:49.295Z,55.25
2019-02-21T11:08:20.409Z,55.61
2019-02-21T11:10:51.738Z,55.67
2019-02-21T11:13:22.861Z,55.52
2019-02-21T11:15:57.349Z,54.72
2019-02-21T11:18:28.700Z,54.26
2019-02-21T11:21:00.216Z,54.72
2019-02-21T11:23:31.314Z,54.91
2019-02-21T11:26:02.749Z,55.34
2019-02-21T11:28:34.020Z,55.63
2019-02-21T11:31:05.522Z,55.69
2019-02-21T11:33:36.618Z,55.77
2019-02-21T11:36:07.811Z,56.20
2019-02-21T11:38:38.945Z,55.28
2019-02-21T11:41:10.189Z,53.66
2019-02-21T11:43:41.306Z,54.23
2019-02-21T11:46:12.436Z,52.50
2019-02-21T11:48:43.586Z,49.71
2019-02-21T11:51:14.656Z,48.55
2019-02-21T11:53:45.828Z,43.87
2019-02-21T11:56:17.195Z,43.56
2019-02-21T11:58:48.373Z,47.96
2019-02-21T12:01:19.851Z,47.37
2019-02-21T12:03:50.949Z,46.59
2019-02-21T12:06:21.978Z,50.45
2019-02-21T12:08:53.170Z,50.36
2019-02-21T12:11:24.348Z,50.47
2019-02-21T12:13:55.741Z,51.73
2019-02-21T12:16:26.834Z,52.14
2019-02-21T12:18:58.583Z,50.74
2019-02-21T12:21:29.735Z,49.59
2019-02-21T12:24:00.854Z,49.25
2019-02-21T12:26:31.951Z,49.77
2019-02-21T12:29:02.970Z,51.23
2019-02-21T12:31:34.111Z,51.26
2019-02-21T12:34:05.300Z,50.75
2019-02-21T12:36:36.400Z,49.88
2019-02-21T12:39:08.837Z,50.08
2019-02-21T12:41:41.535Z,50.65
2019-02-21T12:44:13.828Z,50.41
2019-02-21T12:46:45.779Z,51.32
2019-02-21T12:49:16.949Z,51.40
2019-02-21T12:51:48.057Z,50.18
2019-02-21T12:54:19.101Z,49.78
2019-02-21T12:56:50.105Z,50.70
2019-02-21T12:59:21.137Z,51.03
2019-02-21T13:01:52.221Z,50.97
2019-02-21T13:04:23.372Z,50.69
2019-02-21T13:06:54.390Z,49.58
2019-02-21T13:09:25.570Z,49.79
2019-02-21T13:11:56.730Z,49.20
2019-02-21T13:14:27.834Z,48.85
2019-02-21T13:16:58.824Z,49.71
2019-02-21T13:19:29.945Z,48.69
2019-02-21T13:22:01.067Z,49.55
2019-02-21T13:24:32.138Z,50.62
2019-02-21T13:27:03.282Z,49.65
2019-02-21T13:29:34.397Z,50.87
2019-02-21T13:32:05.488Z,50.06
2019-02-21T13:34:36.506Z,49.96
2019-02-21T13:37:07.539Z,49.90
2019-02-21T13:39:38.603Z,49.65
2019-02-21T13:42:09.745Z,49.82
2019-02-21T13:44:40.838Z,48.35
2019-02-21T13:47:12.091Z,48.27
2019-02-21T13:49:43.233Z,48.98
2019-02-21T13:52:14.240Z,49.82
2019-02-21T13:54:45.444Z,50.52
2019-02-21T13:57:16.551Z,50.61
2019-02-21T13:59:47.712Z,50.56
2019-02-21T14:02:18.848Z,50.02
2019-02-21T14:04:49.901Z,49.65
2019-02-21T14:07:21.067Z,50.29
2019-02-21T14:09:52.157Z,49.56
2019-02-21T14:12:26.275Z,49.50
2019-02-21T14:14:56.098Z,49.92
2019-02-21T14:17:28.604Z,49.50
2019-02-21T14:19:59.680Z,49.14
2019-02-21T14:22:30.796Z,48.37
2019-02-21T14:25:01.825Z,47.83
2019-02-21T14:27:32.948Z,47.47
2019-02-21T14:30:04.592Z,47.04
2019-02-21T14:32:35.744Z,47.17
2019-02-21T14:35:07.789Z,47.16
2019-02-21T14:37:38.860Z,46.32
2019-02-21T14:40:10.920Z,46.23
2019-02-21T14:42:42.081Z,46.05
2019-02-21T14:45:14.754Z,45.88
2019-02-21T14:47:45.961Z,42.85
2019-02-21T14:50:17.304Z,43.79
2019-02-21T15:08:45.638Z,34.86
2019-02-21T15:11:16.739Z,34.86
2019-02-21T15:13:47.887Z,34.33
2019-02-21T15:16:18.881Z,32.27
2019-02-21T15:18:49.904Z,38.00
2019-02-21T15:21:20.978Z,40.61
2019-02-21T15:23:52.208Z,41.61
2019-02-21T15:26:23.352Z,41.94
2019-02-21T15:28:54.367Z,42.21
2019-02-21T15:31:25.518Z,42.83
2019-02-21T15:33:56.745Z,43.42
2019-02-21T15:36:37.985Z,43.50
2019-02-21T15:39:00.552Z,43.38
2019-02-21T15:41:32.200Z,44.84
2019-02-21T15:44:03.404Z,45.15
2019-02-21T15:46:34.474Z,44.64
2019-02-21T15:49:05.582Z,44.70
2019-02-21T15:51:36.613Z,44.25
2019-02-21T15:54:07.933Z,44.88
2019-02-21T15:56:39.084Z,44.46
2019-02-21T15:59:10.213Z,44.41
2019-02-21T16:01:47.586Z,44.97
2019-02-21T16:04:14.091Z,45.31
2019-02-21T16:06:51.873Z,45.07
2019-02-21T16:09:19.076Z,45.16
2019-02-21T16:11:50.195Z,45.63
2019-02-21T16:14:21.284Z,45.95
2019-02-21T16:16:52.509Z,46.37
2019-02-21T16:19:23.676Z,46.45
2019-02-21T16:21:54.758Z,46.85
2019-02-21T16:24:25.765Z,46.73
2019-02-21T16:26:56.931Z,47.14
2019-02-21T16:29:28.913Z,47.29
2019-02-21T16:32:00.196Z,47.65
2019-02-21T16:34:33.052Z,47.69
2019-02-21T16:37:04.020Z,47.95
2019-02-21T16:39:35.046Z,48.03
2019-02-21T16:42:06.165Z,48.03
2019-02-21T16:44:37.337Z,48.43
2019-02-21T16:47:08.442Z,48.47
2019-02-21T16:49:39.513Z,48.38
2019-02-21T16:52:10.671Z,48.99
2019-02-21T16:54:41.689Z,49.21
2019-02-21T16:57:12.714Z,48.94
2019-02-21T16:59:44.871Z,48.97
2019-02-21T17:02:15.890Z,49.29
2019-02-21T17:04:47.123Z,48.96
2019-02-21T17:07:20.162Z,49.17
2019-02-21T17:09:51.077Z,49.32
2019-02-21T17:12:22.257Z,49.67
2019-02-21T17:14:53.415Z,49.77
2019-02-21T17:17:24.473Z,49.88
2019-02-21T17:19:56.735Z,50.44
2019-02-21T17:22:27.839Z,50.80
2019-02-21T17:24:58.953Z,50.91
2019-02-21T17:27:30.075Z,51.36
2019-02-21T17:30:01.128Z,51.47
2019-02-21T17:32:32.291Z,51.64
2019-02-21T17:35:03.477Z,51.96
2019-02-21T17:37:34.658Z,52.08
2019-02-21T17:40:07.107Z,52.30
2019-02-21T17:42:38.346Z,52.50
2019-02-21T17:45:11.251Z,52.68
2019-02-21T17:47:42.409Z,52.77
2019-02-21T17:50:14.903Z,53.01
2019-02-21T17:52:46.088Z,53.15
2019-02-21T17:55:17.573Z,53.87
2019-02-21T17:57:50.015Z,54.53
2019-02-21T18:00:27.059Z,54.50
2019-02-21T18:02:58.242Z,55.06
2019-02-21T18:05:29.450Z,55.42
2019-02-21T18:08:00.538Z,55.27
2019-02-21T18:10:31.653Z,55.37
2019-02-21T18:13:02.744Z,55.39
2019-02-21T18:15:34.003Z,56.00
2019-02-21T18:18:05.187Z,55.86
2019-02-21T18:20:36.399Z,56.19
2019-02-21T18:23:07.758Z,56.76
2019-02-21T18:25:42.067Z,56.83
2019-02-21T18:28:13.081Z,57.03
2019-02-21T18:30:44.314Z,57.27
2019-02-21T18:33:15.476Z,57.63
2019-02-21T18:35:46.748Z,57.82
2019-02-21T18:38:19.009Z,58.05
2019-02-21T18:40:50.054Z,58.63
2019-02-21T18:43:21.206Z,59.01
2019-02-21T18:45:52.394Z,59.44
2019-02-21T18:48:23.477Z,59.79
2019-02-21T18:50:54.581Z,59.98
2019-02-21T18:53:25.689Z,60.10
2019-02-21T18:55:57.747Z,60.45
2019-02-21T18:58:30.008Z,60.68
2019-02-21T19:01:01.106Z,60.75
2019-02-21T19:03:32.194Z,60.97
2019-02-21T19:06:03.456Z,61.09
2019-02-21T19:08:34.573Z,61.13
2019-02-21T19:11:05.868Z,61.35
2019-02-21T19:13:36.881Z,61.59
2019-02-21T19:16:08.143Z,61.75
2019-02-21T19:18:39.842Z,61.65
2019-02-21T19:21:11.004Z,61.88
2019-02-21T19:23:42.139Z,61.79
2019-02-21T19:26:13.547Z,61.91
2019-02-21T19:28:44.875Z,62.07
2019-02-21T19:31:18.660Z,62.13
2019-02-21T19:33:50.821Z,61.90
2019-02-21T19:36:22.090Z,62.03
2019-02-21T19:38:53.233Z,62.13
2019-02-21T19:41:25.441Z,62.22
2019-02-21T19:43:56.649Z,62.29
2019-02-21T19:46:27.820Z,62.14
2019-02-21T19:48:58.953Z,61.99
2019-02-21T19:51:30.103Z,62.22
2019-02-21T19:54:01.289Z,62.17
2019-02-21T19:56:32.444Z,62.16
2019-02-21T19:59:03.622Z,62.11
2019-02-21T20:01:34.697Z,62.19
2019-02-21T20:04:05.836Z,62.28
2019-02-21T20:06:37.008Z,62.40
2019-02-21T20:09:08.752Z,62.63
2019-02-21T20:11:40.816Z,62.71
2019-02-21T20:14:11.962Z,62.94
2019-02-21T20:16:43.061Z,63.05
2019-02-21T20:19:14.366Z,63.10
2019-02-21T20:21:45.543Z,63.04
2019-02-21T20:24:16.756Z,63.14
2019-02-21T20:26:47.940Z,63.14
2019-02-21T20:29:19.104Z,63.72
2019-02-21T20:31:50.247Z,64.00
2019-02-21T20:34:22.452Z,63.70
2019-02-21T20:36:54.150Z,63.45
2019-02-21T20:39:25.323Z,63.57
2019-02-21T20:41:56.507Z,63.52
2019-02-21T20:44:27.643Z,63.50
2019-02-21T20:46:58.748Z,63.48
2019-02-21T20:49:29.849Z,63.56
2019-02-21T20:52:02.150Z,64.00
2019-02-21T20:54:33.201Z,64.17
2019-02-21T20:57:04.550Z,64.22
2019-02-21T20:59:35.957Z,64.35
2019-02-21T21:02:07.162Z,64.59
2019-02-21T21:04:38.271Z,64.29
2019-02-21T21:07:12.256Z,64.23
2019-02-21T21:09:43.537Z,64.44
2019-02-21T21:12:14.889Z,64.43
2019-02-21T21:14:46.088Z,64.82
2019-02-21T21:17:17.183Z,65.34
2019-02-21T21:19:48.405Z,65.64
2019-02-21T21:22:19.592Z,65.89
2019-02-21T21:24:50.745Z,66.30
2019-02-21T21:27:21.821Z,66.56
2019-02-21T21:29:52.999Z,66.72
2019-02-21T21:32:24.028Z,66.76
2019-02-21T21:34:55.198Z,66.88
2019-02-21T21:37:26.432Z,67.05
2019-02-21T21:39:57.695Z,66.89
2019-02-21T21:42:28.847Z,66.70
2019-02-21T21:44:59.947Z,66.58
2019-02-21T21:47:31.197Z,66.63
2019-02-21T21:50:02.283Z,66.70
2019-02-21T21:52:34.569Z,66.66
2019-02-21T21:55:06.448Z,66.71
2019-02-21T21:57:37.526Z,66.54
2019-02-21T22:00:12.567Z,66.66
2019-02-21T22:02:45.268Z,66.56
2019-02-21T22:05:16.851Z,66.52
2019-02-21T22:07:49.382Z,66.55
2019-02-21T22:10:20.811Z,66.71
2019-02-21T22:12:51.889Z,66.56
2019-02-21T22:15:23.105Z,66.63
2019-02-21T22:17:54.190Z,66.71
2019-02-21T22:20:25.343Z,66.62
2019-02-21T22:22:56.423Z,66.85
2019-02-21T22:25:27.581Z,66.56
2019-02-21T22:28:00.206Z,66.53
2019-02-21T22:30:31.326Z,66.49
2019-02-21T22:33:02.437Z,66.30
2019-02-21T22:35:33.717Z,66.28
2019-02-21T22:38:05.026Z,66.41
2019-02-21T22:40:36.371Z,66.08
2019-02-21T22:43:07.463Z,66.04
2019-02-21T22:45:38.638Z,65.81
2019-02-21T22:48:09.806Z,65.57
2019-02-21T22:50:40.873Z,65.65
2019-02-21T22:53:11.950Z,65.79
2019-02-21T22:55:43.005Z,65.47
2019-02-21T22:58:14.155Z,65.48
2019-02-21T23:01:03.466Z,65.17
2019-02-21T23:03:50.688Z,65.01
2019-02-21T23:06:53.354Z,65.08
2019-02-21T23:09:27.838Z,66.28
2019-02-21T23:11:58.588Z,64.70
2019-02-21T23:14:29.929Z,64.48
2019-02-21T23:17:01.081Z,65.26
2019-02-21T23:19:36.020Z,65.33
2019-02-21T23:22:11.014Z,65.36
2019-02-21T23:24:42.298Z,65.40
2019-02-21T23:27:15.074Z,65.25
2019-02-21T23:29:46.219Z,65.38
2019-02-21T23:32:17.339Z,65.34
2019-02-21T23:34:48.374Z,65.33
2019-02-21T23:37:19.763Z,65.29
2019-02-21T23:39:51.998Z,65.10
2019-02-21T23:42:24.492Z,65.33
2019-02-21T23:44:55.633Z,64.91
2019-02-21T23:47:26.929Z,64.60
2019-02-21T23:49:58.129Z,64.53
2019-02-21T23:52:29.272Z,64.53
2019-02-21T23:55:00.354Z,64.60
2019-02-21T23:57:31.598Z,64.53
